Time,TemperatureF,DewpointF,PressureIn,WindDirection,WindDirectionDegrees,WindSpeedMPH,WindSpeedGustMPH,Humidity,HourlyPrecipIn,Conditions,Clouds,dailyrainin,SoftwareType,DateUTC
2013-02-16 00:01:00,68.0,-99.9,30.16,NNE,27,11.0,13.0,-999,-99.99,,,-99.99,,2013-02-16 08:01:00,
2013-02-16 00:11:00,68.0,-99.9,30.16,North,-999,-999.0,-999.0,-999,-99.99,,,-99.99,,2013-02-16 08:11:00,
2013-02-16 00:22:00,67.0,-99.9,30.16,North,-999,-999.0,-999.0,-999,-99.99,,,-99.99,,2013-02-16 08:22:00,
2013-02-16 00:32:00,67.0,-99.9,30.16,North,-999,-999.0,-999.0,-999,-99.99,,,-99.99,,2013-02-16 08:32:00,
2013-02-16 00:42:00,66.0,-99.9,30.16,North,-999,-999.0,-999.0,-999,-99.99,,,-99.99,,2013-02-16 08:42:00,
2013-02-16 00:52:00,66.0,-99.9,30.16,North,-999,-999.0,-999.0,-999,-99.99,,,-99.99,,2013-02-16 08:52:00,
2013-02-16 01:02:00,66.0,-99.9,30.16,NE,38,6.0,10.0,-999,-99.99,,,-99.99,,2013-02-16 09:02:00,
2013-02-16 01:11:00,64.0,-99.9,30.15,North,-999,-999.0,-999.0,-999,-99.99,,,-99.99,,2013-02-16 09:11:00,
2013-02-16 01:21:00,64.0,-99.9,30.16,North,353,2.0,5.0,-999,-99.99,,,-99.99,,2013-02-16 09:21:00,
2013-02-16 01:32:00,65.0,-99.9,30.15,North,-999,-999.0,-999.0,-999,-99.99,,,-99.99,,2013-02-16 09:32:00,
2013-02-16 01:42:00,64.0,-99.9,30.15,North,-999,-999.0,-999.0,-999,-99.99,,,-99.99,,2013-02-16 09:42:00,
2013-02-16 01:52:00,62.0,-99.9,30.15,North,-999,-999.0,-999.0,-999,-99.99,,,-99.99,,2013-02-16 09:52:00,
2013-02-16 02:01:00,63.0,-99.9,30.15,North,-999,-999.0,-999.0,-999,-99.99,,,-99.99,,2013-02-16 10:01:00,
2013-02-16 02:11:00,64.0,-99.9,30.15,North,-999,-999.0,-999.0,-999,-99.99,,,-99.99,,2013-02-16 10:11:00,
2013-02-16 02:21:00,63.0,-99.9,30.14,North,-999,-999.0,-999.0,-999,-99.99,,,-99.99,,2013-02-16 10:21:00,
2013-02-16 02:32:00,62.0,-99.9,30.14,NE,43,8.0,11.0,-999,-99.99,,,-99.99,,2013-02-16 10:32:00,
2013-02-16 02:42:00,61.0,-99.9,30.14,North,-999,-999.0,-999.0,-999,-99.99,,,-99.99,,2013-02-16 10:42:00,
2013-02-16 02:52:00,64.0,-99.9,30.14,North,-999,-999.0,-999.0,-999,-99.99,,,-99.99,,2013-02-16 10:52:00,
2013-02-16 03:02:00,64.0,-99.9,30.13,NNE,18,5.0,7.0,-999,-99.99,,,-99.99,,2013-02-16 11:02:00,
2013-02-16 03:11:00,66.0,-99.9,30.13,North,-999,-999.0,-999.0,-999,-99.99,,,-99.99,,2013-02-16 11:11:00,
2013-02-16 03:22:00,65.0,-99.9,30.13,NNE,15,8.0,10.0,-999,-99.99,,,-99.99,,2013-02-16 11:22:00,
2013-02-16 03:32:00,67.0,-99.9,30.13,North,-999,-999.0,-999.0,-999,-99.99,,,-99.99,,2013-02-16 11:32:00,
2013-02-16 03:42:00,66.0,-99.9,30.13,North,-999,-999.0,-999.0,-999,-99.99,,,-99.99,,2013-02-16 11:42:00,
2013-02-16 03:52:00,62.0,-99.9,30.13,North,-999,-999.0,-999.0,-999,-99.99,,,-99.99,,2013-02-16 11:52:00,
2013-02-16 04:02:00,62.0,-99.9,30.12,NE,47,3.0,5.0,-999,-99.99,,,-99.99,,2013-02-16 12:02:00,
2013-02-16 04:12:00,63.0,-99.9,30.13,North,-999,-999.0,-999.0,-999,-99.99,,,-99.99,,2013-02-16 12:12:00,
2013-02-16 04:22:00,62.0,-99.9,30.13,North,-999,-999.0,-999.0,-999,-99.99,,,-99.99,,2013-02-16 12:22:00,
2013-02-16 04:32:00,63.0,-99.9,30.13,North,356,6.0,9.0,-999,-99.99,,,-99.99,,2013-02-16 12:32:00,
2013-02-16 04:42:00,62.0,-99.9,30.13,North,-999,-999.0,-999.0,-999,-99.99,,,-99.99,,2013-02-16 12:42:00,
2013-02-16 04:52:00,61.0,-99.9,30.13,NE,39,0.0,2.0,-999,-99.99,,,-99.99,,2013-02-16 12:52:00,
2013-02-16 05:02:00,60.0,-99.9,30.13,North,-999,-999.0,-999.0,-999,-99.99,,,-99.99,,2013-02-16 13:02:00,
2013-02-16 05:12:00,59.0,-99.9,30.13,North,-999,-999.0,-999.0,-999,-99.99,,,-99.99,,2013-02-16 13:12:00,
2013-02-16 05:22:00,58.0,-99.9,30.13,North,-999,-999.0,-999.0,-999,-99.99,,,-99.99,,2013-02-16 13:22:00,
2013-02-16 05:32:00,57.0,-99.9,30.13,ESE,112,5.0,8.0,-999,-99.99,,,-99.99,,2013-02-16 13:32:00,
2013-02-16 05:42:00,58.0,-99.9,30.13,North,-999,-999.0,-999.0,-999,-99.99,,,-99.99,,2013-02-16 13:42:00,
2013-02-16 05:52:00,56.0,-99.9,30.13,North,-999,-999.0,-999.0,-999,-99.99,,,-99.99,,2013-02-16 13:52:00,
2013-02-16 06:01:00,56.0,-99.9,30.13,East,81,4.0,7.0,-999,-99.99,,,-99.99,,2013-02-16 14:01:00,
2013-02-16 06:11:00,59.0,-99.9,30.14,North,-999,-999.0,-999.0,-999,-99.99,,,-99.99,,2013-02-16 14:11:00,
2013-02-16 06:21:00,58.0,-99.9,30.14,East,87,8.0,10.0,-999,-99.99,,,-99.99,,2013-02-16 14:21:00,
2013-02-16 06:32:00,57.0,-99.9,30.14,North,-999,-999.0,-999.0,-999,-99.99,,,-99.99,,2013-02-16 14:32:00,
2013-02-16 06:42:00,55.0,-99.9,30.14,North,-999,-999.0,-999.0,-999,-99.99,,,-99.99,,2013-02-16 14:42:00,
2013-02-16 06:52:00,55.0,-99.9,30.14,North,-999,-999.0,-999.0,-999,-99.99,,,-99.99,,2013-02-16 14:52:00,
2013-02-16 07:02:00,55.0,-99.9,30.14,North,-999,-999.0,-999.0,-999,-99.99,,,-99.99,,2013-02-16 15:02:00,
2013-02-16 07:11:00,55.0,-99.9,30.14,North,-999,-999.0,-999.0,-999,-99.99,,,-99.99,,2013-02-16 15:11:00,
2013-02-16 07:22:00,58.0,-99.9,30.14,North,-999,-999.0,-999.0,-999,-99.99,,,-99.99,,2013-02-16 15:22:00,
2013-02-16 07:32:00,58.0,-99.9,30.14,NE,39,10.0,13.0,-999,-99.99,,,-99.99,,2013-02-16 15:32:00,
2013-02-16 07:42:00,60.0,-99.9,30.15,North,-999,-999.0,-999.0,-999,-99.99,,,-99.99,,2013-02-16 15:42:00,
2013-02-16 07:52:00,61.0,-99.9,30.15,NE,42,9.0,12.0,-999,-99.99,,,-99.99,,2013-02-16 15:52:00,
2013-02-16 08:02:00,63.0,-99.9,30.15,North,-999,-999.0,-999.0,-999,-99.99,,,-99.99,,2013-02-16 16:02:00,
2013-02-16 08:11:00,63.0,-99.9,30.15,North,-999,-999.0,-999.0,-999,-99.99,,,-99.99,,2013-02-16 16:11:00,
2013-02-16 08:22:00,66.0,-99.9,30.15,North,-999,-999.0,-999.0,-999,-99.99,,,-99.99,,2013-02-16 16:22:00,
2013-02-16 08:32:00,67.0,-99.9,30.15,North,-999,-999.0,-999.0,-999,-99.99,,,-99.99,,2013-02-16 16:32:00,
2013-02-16 08:42:00,69.0,-99.9,30.15,North,-999,-999.0,-999.0,-999,-99.99,,,-99.99,,2013-02-16 16:42:00,
2013-02-16 08:52:00,70.0,-99.9,30.15,North,-999,-999.0,-999.0,-999,-99.99,,,-99.99,,2013-02-16 16:52:00,
2013-02-16 09:01:00,71.0,-99.9,30.15,NE,37,4.0,9.0,-999,-99.99,,,-99.99,,2013-02-16 17:01:00,
2013-02-16 09:11:00,72.0,-99.9,30.15,North,-999,-999.0,-999.0,-999,-99.99,,,-99.99,,2013-02-16 17:11:00,
2013-02-16 09:22:00,73.0,-99.9,30.15,North,-999,-999.0,-999.0,-999,-99.99,,,-99.99,,2013-02-16 17:22:00,
2013-02-16 09:32:00,73.0,-99.9,30.16,NE,52,6.0,9.0,-999,-99.99,,,-99.99,,2013-02-16 17:32:00,
2013-02-16 09:42:00,73.0,-99.9,30.16,North,-999,-999.0,-999.0,-999,-99.99,,,-99.99,,2013-02-16 17:42:00,
2013-02-16 09:52:00,73.0,-99.9,30.16,ENE,64,7.0,12.0,-999,-99.99,,,-99.99,,2013-02-16 17:52:00,
2013-02-16 10:02:00,73.0,-99.9,30.15,North,-999,-999.0,-999.0,-999,-99.99,,,-99.99,,2013-02-16 18:02:00,
2013-02-16 10:11:00,73.0,-99.9,30.16,North,-999,-999.0,-999.0,-999,-99.99,,,-99.99,,2013-02-16 18:11:00,
2013-02-16 10:22:00,73.0,-99.9,30.15,North,-999,-999.0,-999.0,-999,-99.99,,,-99.99,,2013-02-16 18:22:00,
2013-02-16 10:33:00,73.0,-99.9,30.15,ENE,63,9.0,13.0,-999,-99.99,,,-99.99,,2013-02-16 18:33:00,
2013-02-16 10:42:00,73.0,-99.9,30.15,North,-999,-999.0,-999.0,-999,-99.99,,,-99.99,,2013-02-16 18:42:00,
2013-02-16 10:52:00,74.0,-99.9,30.15,North,-999,-999.0,-999.0,-999,-99.99,,,-99.99,,2013-02-16 18:52:00,
2013-02-16 11:02:00,74.0,-99.9,30.15,ENE,72,12.0,14.0,-999,-99.99,,,-99.99,,2013-02-16 19:02:00,
2013-02-16 11:11:00,75.0,-99.9,30.15,North,-999,-999.0,-999.0,-999,-99.99,,,-99.99,,2013-02-16 19:11:00,
2013-02-16 11:22:00,75.0,-99.9,30.14,ENE,71,8.0,11.0,-999,-99.99,,,-99.99,,2013-02-16 19:22:00,
2013-02-16 11:32:00,75.0,-99.9,30.14,North,-999,-999.0,-999.0,-999,-99.99,,,-99.99,,2013-02-16 19:32:00,
2013-02-16 11:42:00,76.0,-99.9,30.13,North,-999,-999.0,-999.0,-999,-99.99,,,-99.99,,2013-02-16 19:42:00,
2013-02-16 11:52:00,77.0,-99.9,30.12,North,-999,-999.0,-999.0,-999,-99.99,,,-99.99,,2013-02-16 19:52:00,
2013-02-16 12:02:00,78.0,-99.9,30.11,North,-999,-999.0,-999.0,-999,-99.99,,,-99.99,,2013-02-16 20:02:00,
2013-02-16 12:11:00,75.0,-99.9,30.11,North,-999,-999.0,-999.0,-999,-99.99,,,-99.99,,2013-02-16 20:11:00,
2013-02-16 12:22:00,74.0,-99.9,30.10,North,-999,-999.0,-999.0,-999,-99.99,,,-99.99,,2013-02-16 20:22:00,
2013-02-16 12:32:00,72.0,-99.9,30.10,SSW,197,9.0,9.0,-999,-99.99,,,-99.99,,2013-02-16 20:32:00,
2013-02-16 12:42:00,61.0,-99.9,30.10,North,-999,-999.0,-999.0,-999,-99.99,,,-99.99,,2013-02-16 20:42:00,
2013-02-16 12:52:00,60.0,-99.9,30.09,WNW,294,13.0,14.0,-999,-99.99,,,-99.99,,2013-02-16 20:52:00,
2013-02-16 13:02:00,63.0,-99.9,30.09,North,-999,-999.0,-999.0,-999,-99.99,,,-99.99,,2013-02-16 21:02:00,
2013-02-16 13:11:00,62.0,-99.9,30.08,North,-999,-999.0,-999.0,-999,-99.99,,,-99.99,,2013-02-16 21:11:00,
2013-02-16 13:22:00,61.0,-99.9,30.08,North,-999,-999.0,-999.0,-999,-99.99,,,-99.99,,2013-02-16 21:22:00,
2013-02-16 13:32:00,61.0,-99.9,30.07,WNW,300,6.0,8.0,-999,-99.99,,,-99.99,,2013-02-16 21:32:00,
2013-02-16 13:42:00,63.0,-99.9,30.07,North,-999,-999.0,-999.0,-999,-99.99,,,-99.99,,2013-02-16 21:42:00,
2013-02-16 13:52:00,64.0,-99.9,30.06,North,-999,-999.0,-999.0,-999,-99.99,,,-99.99,,2013-02-16 21:52:00,
2013-02-16 14:01:00,64.0,-99.9,30.06,WNW,294,7.0,8.0,-999,-99.99,,,-99.99,,2013-02-16 22:01:00,
2013-02-16 14:11:00,65.0,-99.9,30.06,North,-999,-999.0,-999.0,-999,-99.99,,,-99.99,,2013-02-16 22:11:00,
2013-02-16 14:22:00,65.0,-99.9,30.05,WNW,296,6.0,8.0,-999,-99.99,,,-99.99,,2013-02-16 22:22:00,
2013-02-16 14:32:00,66.0,-99.9,30.05,North,-999,-999.0,-999.0,-999,-99.99,,,-99.99,,2013-02-16 22:32:00,
2013-02-16 14:42:00,65.0,-99.9,30.04,North,-999,-999.0,-999.0,-999,-99.99,,,-99.99,,2013-02-16 22:42:00,
2013-02-16 14:52:00,65.0,-99.9,30.04,North,-999,-999.0,-999.0,-999,-99.99,,,-99.99,,2013-02-16 22:52:00,
2013-02-16 15:02:00,66.0,-99.9,30.04,WNW,297,6.0,7.0,-999,-99.99,,,-99.99,,2013-02-16 23:02:00,
2013-02-16 15:11:00,67.0,-99.9,30.04,North,-999,-999.0,-999.0,-999,-99.99,,,-99.99,,2013-02-16 23:11:00,
2013-02-16 15:21:00,67.0,-99.9,30.04,North,-999,-999.0,-999.0,-999,-99.99,,,-99.99,,2013-02-16 23:21:00,
2013-02-16 15:32:00,66.0,-99.9,30.03,West,276,9.0,11.0,-999,-99.99,,,-99.99,,2013-02-16 23:32:00,
2013-02-16 15:42:00,64.0,-99.9,30.03,North,-999,-999.0,-999.0,-999,-99.99,,,-99.99,,2013-02-16 23:42:00,
2013-02-16 15:52:00,66.0,-99.9,30.03,NW,323,6.0,8.0,-999,-99.99,,,-99.99,,2013-02-16 23:52:00,
2013-02-16 16:02:00,65.0,-99.9,30.02,North,-999,-999.0,-999.0,-999,-99.99,,,-99.99,,2013-02-17 00:02:00,
2013-02-16 16:12:00,66.0,-99.9,30.02,North,-999,-999.0,-999.0,-999,-99.99,,,-99.99,,2013-02-17 00:12:00,
2013-02-16 16:22:00,66.0,-99.9,30.02,North,-999,-999.0,-999.0,-999,-99.99,,,-99.99,,2013-02-17 00:22:00,
2013-02-16 16:32:00,66.0,-99.9,30.02,North,-999,-999.0,-999.0,-999,-99.99,,,-99.99,,2013-02-17 00:32:00,
2013-02-16 16:42:00,67.0,-99.9,30.02,North,-999,-999.0,-999.0,-999,-99.99,,,-99.99,,2013-02-17 00:42:00,
2013-02-16 16:52:00,68.0,-99.9,30.01,North,-999,-999.0,-999.0,-999,-99.99,,,-99.99,,2013-02-17 00:52:00,
2013-02-16 17:01:00,68.0,-99.9,30.01,NW,318,6.0,9.0,-999,-99.99,,,-99.99,,2013-02-17 01:01:00,
2013-02-16 17:11:00,68.0,-99.9,30.01,North,-999,-999.0,-999.0,-999,-99.99,,,-99.99,,2013-02-17 01:11:00,
2013-02-16 17:21:00,65.0,-99.9,30.00,North,-999,-999.0,-999.0,-999,-99.99,,,-99.99,,2013-02-17 01:21:00,
2013-02-16 17:32:00,66.0,-99.9,30.00,NW,315,3.0,6.0,-999,-99.99,,,-99.99,,2013-02-17 01:32:00,
2013-02-16 17:42:00,65.0,-99.9,30.00,North,-999,-999.0,-999.0,-999,-99.99,,,-99.99,,2013-02-17 01:42:00,
2013-02-16 17:52:00,65.0,-99.9,30.00,West,270,9.0,13.0,-999,-99.99,,,-99.99,,2013-02-17 01:52:00,
2013-02-16 18:01:00,62.0,-99.9,30.00,North,-999,-999.0,-999.0,-999,-99.99,,,-99.99,,2013-02-17 02:01:00,
2013-02-16 18:11:00,63.0,-99.9,30.00,North,-999,-999.0,-999.0,-999,-99.99,,,-99.99,,2013-02-17 02:11:00,
2013-02-16 18:21:00,63.0,-99.9,30.00,North,-999,-999.0,-999.0,-999,-99.99,,,-99.99,,2013-02-17 02:21:00,
2013-02-16 18:32:00,63.0,-99.9,30.00,WNW,298,6.0,9.0,-999,-99.99,,,-99.99,,2013-02-17 02:32:00,
2013-02-16 18:42:00,63.0,-99.9,30.00,North,-999,-999.0,-999.0,-999,-99.99,,,-99.99,,2013-02-17 02:42:00,
2013-02-16 18:52:00,63.0,-99.9,30.00,North,-999,-999.0,-999.0,-999,-99.99,,,-99.99,,2013-02-17 02:52:00,
2013-02-16 19:02:00,62.0,-99.9,30.00,West,270,3.0,5.0,-999,-99.99,,,-99.99,,2013-02-17 03:02:00,
2013-02-16 19:11:00,62.0,-99.9,30.00,North,-999,-999.0,-999.0,-999,-99.99,,,-99.99,,2013-02-17 03:11:00,
2013-02-16 19:21:00,61.0,-99.9,30.00,WNW,288,4.0,5.0,-999,-99.99,,,-99.99,,2013-02-17 03:21:00,
2013-02-16 19:32:00,61.0,-99.9,30.00,North,-999,-999.0,-999.0,-999,-99.99,,,-99.99,,2013-02-17 03:32:00,
2013-02-16 19:42:00,63.0,-99.9,29.99,North,-999,-999.0,-999.0,-999,-99.99,,,-99.99,,2013-02-17 03:42:00,
2013-02-16 19:52:00,63.0,-99.9,29.99,North,-999,-999.0,-999.0,-999,-99.99,,,-99.99,,2013-02-17 03:52:00,
2013-02-16 20:01:00,62.0,-99.9,29.99,ENE,76,1.0,2.0,-999,-99.99,,,-99.99,,2013-02-17 04:01:00,
2013-02-16 20:11:00,61.0,-99.9,29.98,North,-999,-999.0,-999.0,-999,-99.99,,,-99.99,,2013-02-17 04:11:00,
2013-02-16 20:21:00,61.0,-99.9,29.98,ESE,107,3.0,4.0,-999,-99.99,,,-99.99,,2013-02-17 04:21:00,
2013-02-16 20:32:00,63.0,-99.9,29.99,North,-999,-999.0,-999.0,-999,-99.99,,,-99.99,,2013-02-17 04:32:00,
2013-02-16 20:42:00,61.0,-99.9,29.99,North,-999,-999.0,-999.0,-999,-99.99,,,-99.99,,2013-02-17 04:42:00,
2013-02-16 20:52:00,61.0,-99.9,29.99,North,-999,-999.0,-999.0,-999,-99.99,,,-99.99,,2013-02-17 04:52:00,
2013-02-16 21:02:00,60.0,-99.9,29.99,North,-999,-999.0,-999.0,-999,-99.99,,,-99.99,,2013-02-17 05:02:00,
2013-02-16 21:12:00,59.0,-99.9,29.98,North,-999,-999.0,-999.0,-999,-99.99,,,-99.99,,2013-02-17 05:12:00,
2013-02-16 21:22:00,59.0,-99.9,29.99,North,-999,-999.0,-999.0,-999,-99.99,,,-99.99,,2013-02-17 05:22:00,
2013-02-16 21:33:00,59.0,-99.9,29.99,ESE,122,7.0,8.0,-999,-99.99,,,-99.99,,2013-02-17 05:33:00,
2013-02-16 21:42:00,58.0,-99.9,29.98,North,-999,-999.0,-999.0,-999,-99.99,,,-99.99,,2013-02-17 05:42:00,
2013-02-16 21:52:00,58.0,-99.9,29.99,North,-999,-999.0,-999.0,-999,-99.99,,,-99.99,,2013-02-17 05:52:00,
2013-02-16 22:02:00,58.0,-99.9,29.99,SE,139,5.0,6.0,-999,-99.99,,,-99.99,,2013-02-17 06:02:00,
2013-02-16 22:11:00,57.0,-99.9,29.99,North,-999,-999.0,-999.0,-999,-99.99,,,-99.99,,2013-02-17 06:11:00,
2013-02-16 22:21:00,57.0,-99.9,29.99,ESE,116,4.0,6.0,-999,-99.99,,,-99.99,,2013-02-17 06:21:00,
2013-02-16 22:32:00,57.0,-99.9,29.99,North,-999,-999.0,-999.0,-999,-99.99,,,-99.99,,2013-02-17 06:32:00,
2013-02-16 22:42:00,58.0,-99.9,29.99,North,-999,-999.0,-999.0,-999,-99.99,,,-99.99,,2013-02-17 06:42:00,
2013-02-16 22:52:00,58.0,-99.9,29.98,North,-999,-999.0,-999.0,-999,-99.99,,,-99.99,,2013-02-17 06:52:00,
2013-02-16 23:01:00,58.0,-99.9,29.98,SSE,168,1.0,2.0,-999,-99.99,,,-99.99,,2013-02-17 07:01:00,
2013-02-16 23:11:00,57.0,-99.9,29.98,North,-999,-999.0,-999.0,-999,-99.99,,,-99.99,,2013-02-17 07:11:00,
2013-02-16 23:21:00,58.0,-99.9,29.98,North,-999,-999.0,-999.0,-999,-99.99,,,-99.99,,2013-02-17 07:21:00,
2013-02-16 23:32:00,58.0,-99.9,29.98,ENE,70,4.0,6.0,-999,-99.99,,,-99.99,,2013-02-17 07:32:00,
2013-02-16 23:42:00,57.0,-99.9,29.97,North,-999,-999.0,-999.0,-999,-99.99,,,-99.99,,2013-02-17 07:42:00,
2013-02-16 23:52:00,58.0,-99.9,29.97,NE,44,9.0,11.0,-999,-99.99,,,-99.99,,2013-02-17 07:52:00,